createdAt,value
2023-03-06T00:00:22.174Z,5.28
2023-03-06T00:02:49.081Z,5.07
2023-03-06T00:05:15.972Z,5.45
2023-03-06T00:07:43.085Z,5.72
2023-03-06T00:10:14.073Z,4.93
2023-03-06T00:12:41.095Z,5.88
2023-03-06T00:15:08.360Z,5.25
2023-03-06T00:17:35.452Z,5.47
2023-03-06T00:20:02.296Z,5.72
2023-03-06T00:22:29.205Z,5.60
2023-03-06T00:24:56.105Z,6.07
2023-03-06T00:27:26.262Z,5.40
2023-03-06T00:32:23.542Z,6.47
2023-03-06T00:34:51.267Z,5.88
2023-03-06T00:37:18.584Z,5.53
2023-03-06T00:39:46.178Z,7.03
2023-03-06T00:42:13.394Z,4.82
2023-03-06T00:44:40.294Z,5.32
2023-03-06T00:47:07.299Z,5.95
2023-03-06T00:49:34.263Z,5.50
2023-03-06T00:52:01.200Z,5.38
2023-03-06T00:54:28.073Z,5.63
2023-03-06T00:56:54.953Z,5.28
2023-03-06T00:59:21.901Z,5.65
2023-03-06T01:01:48.768Z,5.55
2023-03-06T01:04:15.721Z,5.70
2023-03-06T01:06:42.637Z,6.22
2023-03-06T01:09:09.500Z,5.68
2023-03-06T01:11:36.389Z,6.05
2023-03-06T01:14:04.079Z,5.78
2023-03-06T01:16:31.202Z,5.65
2023-03-06T01:18:58.137Z,5.13
2023-03-06T01:21:25.141Z,5.45
2023-03-06T01:23:52.061Z,5.63
2023-03-06T01:26:18.999Z,5.55
2023-03-06T01:28:45.841Z,6.18
2023-03-06T01:31:12.787Z,5.43
2023-03-06T01:33:39.672Z,5.88
2023-03-06T01:36:10.946Z,5.97
2023-03-06T01:38:37.886Z,6.05
2023-03-06T01:41:05.059Z,5.32
2023-03-06T01:43:34.296Z,5.82
2023-03-06T01:46:29.047Z,5.35
2023-03-06T01:49:15.856Z,6.60
2023-03-06T01:52:10.197Z,5.72
2023-03-06T01:55:10.120Z,5.45
2023-03-06T01:57:40.188Z,5.65
2023-03-06T02:02:51.760Z,5.80
2023-03-06T02:05:18.638Z,5.05
2023-03-06T02:07:45.607Z,5.63
2023-03-06T02:10:14.387Z,6.22
2023-03-06T02:12:43.694Z,5.82
2023-03-06T02:15:15.024Z,6.73
2023-03-06T02:17:43.091Z,6.75
2023-03-06T02:20:26.582Z,5.80
2023-03-06T02:23:16.319Z,5.65
2023-03-06T02:25:50.314Z,5.72
2023-03-06T02:28:19.294Z,5.72
2023-03-06T02:30:47.278Z,5.53
2023-03-06T02:33:15.729Z,5.55
2023-03-06T02:36:05.177Z,5.82
2023-03-06T02:38:37.243Z,6.13
2023-03-06T02:41:05.493Z,5.88
2023-03-06T02:43:34.420Z,5.65
2023-03-06T02:46:02.436Z,6.18
2023-03-06T02:48:29.365Z,5.68
2023-03-06T02:50:56.273Z,5.40
2023-03-06T02:53:23.135Z,5.53
2023-03-06T02:55:50.126Z,5.93
2023-03-06T02:58:19.716Z,5.07
2023-03-06T03:00:47.931Z,5.80
2023-03-06T03:03:14.879Z,6.25
2023-03-06T03:05:41.751Z,5.55
2023-03-06T03:08:15.301Z,6.10
2023-03-06T03:10:42.631Z,6.93
2023-03-06T03:13:09.498Z,6.32
2023-03-06T03:15:38.121Z,6.47
2023-03-06T03:18:05.054Z,5.88
2023-03-06T03:20:32.039Z,4.68
2023-03-06T03:22:59.064Z,5.95
2023-03-06T03:25:26.864Z,5.95
2023-03-06T03:27:56.745Z,6.97
2023-03-06T03:30:23.706Z,5.57
2023-03-06T03:32:50.584Z,5.78
2023-03-06T03:35:17.795Z,6.03
2023-03-06T03:37:44.772Z,5.43
2023-03-06T03:40:12.768Z,6.22
2023-03-06T03:42:39.762Z,5.35
2023-03-06T03:45:07.800Z,6.18
2023-03-06T03:47:34.712Z,6.93
2023-03-06T03:50:02.640Z,6.38
2023-03-06T03:52:29.690Z,5.47
2023-03-06T03:54:56.889Z,5.65
2023-03-06T03:57:24.408Z,6.43
2023-03-06T03:59:53.135Z,5.43
2023-03-06T04:02:25.555Z,5.15
2023-03-06T04:05:08.389Z,5.82
2023-03-06T04:07:35.361Z,6.05
2023-03-06T04:10:02.328Z,7.30
2023-03-06T04:12:30.278Z,6.80
2023-03-06T04:14:57.267Z,6.82
2023-03-06T04:17:24.242Z,5.57
2023-03-06T04:19:52.181Z,6.28
2023-03-06T04:22:19.223Z,5.38
2023-03-06T04:24:48.931Z,5.65
2023-03-06T04:27:16.752Z,5.90
2023-03-06T04:29:43.857Z,6.10
2023-03-06T04:32:10.984Z,6.03
2023-03-06T04:34:38.994Z,6.70
2023-03-06T04:37:06.859Z,6.18
2023-03-06T04:39:34.206Z,6.00
2023-03-06T04:42:01.249Z,5.97
2023-03-06T04:44:28.261Z,7.55
2023-03-06T04:46:55.182Z,6.95
2023-03-06T04:49:22.266Z,6.32
2023-03-06T04:51:49.137Z,7.35
2023-03-06T04:54:17.952Z,6.72
2023-03-06T04:56:45.783Z,6.35
2023-03-06T04:59:12.620Z,5.68
2023-03-06T05:01:39.637Z,7.10
2023-03-06T05:04:06.514Z,7.95
2023-03-06T05:06:33.426Z,6.95
2023-03-06T05:09:00.281Z,7.40
2023-03-06T05:11:27.439Z,6.82
2023-03-06T05:13:54.256Z,6.88
2023-03-06T05:16:21.204Z,6.68
2023-03-06T05:18:50.609Z,6.05
2023-03-06T05:21:17.671Z,7.28
2023-03-06T05:23:44.576Z,6.80
2023-03-06T05:26:12.256Z,6.95
2023-03-06T05:28:39.238Z,7.95
2023-03-06T05:31:06.480Z,7.13
2023-03-06T05:33:34.141Z,7.07
2023-03-06T05:36:01.187Z,6.00
2023-03-06T05:38:28.110Z,6.95
2023-03-06T05:40:55.004Z,7.95
2023-03-06T05:43:21.886Z,6.93
2023-03-06T05:45:50.625Z,8.07
2023-03-06T05:48:17.511Z,8.38
2023-03-06T05:50:44.372Z,8.13
2023-03-06T05:53:11.251Z,7.00
2023-03-06T05:55:38.193Z,8.38
2023-03-06T05:58:05.072Z,8.25
2023-03-06T06:00:31.936Z,7.03
2023-03-06T06:03:01.236Z,7.75
2023-03-06T06:05:28.155Z,7.97
2023-03-06T06:07:55.134Z,7.88
2023-03-06T06:10:21.969Z,8.23
2023-03-06T06:12:48.924Z,8.15
2023-03-06T06:15:15.916Z,7.93
2023-03-06T06:17:42.777Z,8.43
2023-03-06T06:20:10.169Z,7.43
2023-03-06T06:22:38.112Z,6.40
2023-03-06T06:25:06.038Z,7.10
2023-03-06T06:27:33.016Z,8.80
2023-03-06T06:29:59.879Z,8.15
2023-03-06T06:32:26.754Z,8.48
2023-03-06T06:34:53.775Z,8.35
2023-03-06T06:37:20.660Z,7.95
2023-03-06T06:39:47.578Z,7.28
2023-03-06T06:42:30.954Z,9.00
2023-03-06T06:45:00.099Z,9.60
2023-03-06T06:47:27.128Z,9.23
2023-03-06T06:49:54.702Z,7.28
2023-03-06T06:52:22.083Z,8.00
2023-03-06T06:54:48.959Z,7.63
2023-03-06T06:57:15.992Z,8.73
2023-03-06T06:59:42.933Z,7.40
2023-03-06T07:02:13.912Z,7.85
2023-03-06T07:04:49.260Z,7.85
2023-03-06T07:07:19.649Z,6.88
2023-03-06T07:09:46.534Z,8.40
2023-03-06T07:12:13.414Z,8.50
2023-03-06T07:14:41.508Z,9.10
2023-03-06T07:17:09.381Z,8.13
2023-03-06T07:19:37.365Z,7.38
2023-03-06T07:22:05.090Z,8.27
2023-03-06T07:24:32.049Z,8.40
2023-03-06T07:26:58.955Z,8.43
2023-03-06T07:29:25.841Z,8.65
2023-03-06T07:31:52.721Z,7.07
2023-03-06T07:34:19.590Z,7.20
2023-03-06T07:36:46.423Z,7.38
2023-03-06T07:39:13.413Z,7.18
2023-03-06T07:41:40.430Z,7.03
2023-03-06T07:44:07.408Z,6.47
2023-03-06T07:46:34.385Z,6.78
2023-03-06T07:49:01.307Z,5.63
2023-03-06T07:51:28.297Z,6.45
2023-03-06T07:53:55.218Z,6.43
2023-03-06T07:56:22.184Z,6.25
2023-03-06T07:58:49.316Z,5.90
2023-03-06T08:01:20.486Z,7.00
2023-03-06T08:03:47.855Z,6.25
2023-03-06T08:06:22.203Z,5.15
2023-03-06T08:08:50.148Z,5.85
2023-03-06T08:11:17.992Z,5.82
2023-03-06T08:13:44.961Z,5.03
2023-03-06T08:16:12.124Z,5.03
2023-03-06T08:18:43.682Z,5.28
2023-03-06T08:21:13.777Z,5.72
2023-03-06T08:23:40.945Z,5.22
2023-03-06T08:26:13.010Z,5.28
2023-03-06T08:28:40.092Z,4.75
2023-03-06T08:31:14.858Z,4.72
2023-03-06T08:33:41.776Z,5.97
2023-03-06T08:36:08.824Z,5.78
2023-03-06T08:38:35.727Z,4.63
2023-03-06T08:41:02.740Z,5.90
2023-03-06T08:43:29.678Z,4.90
2023-03-06T08:45:57.106Z,4.97
2023-03-06T08:48:24.325Z,4.70
2023-03-06T08:50:51.333Z,4.57
2023-03-06T08:53:18.310Z,3.75
2023-03-06T08:55:45.240Z,4.35
2023-03-06T08:58:12.202Z,3.88
2023-03-06T09:00:39.466Z,4.32
2023-03-06T09:03:06.444Z,4.63
2023-03-06T09:05:33.507Z,4.38
2023-03-06T09:08:00.474Z,4.32
2023-03-06T09:10:27.487Z,4.03
2023-03-06T09:12:55.080Z,4.38
2023-03-06T09:15:22.662Z,4.20
2023-03-06T09:17:50.919Z,4.65
2023-03-06T09:20:18.363Z,4.65
2023-03-06T09:22:45.800Z,4.63
2023-03-06T09:25:20.532Z,5.05
2023-03-06T09:27:55.426Z,4.25
2023-03-06T09:30:28.950Z,5.07
2023-03-06T09:32:56.261Z,4.80
2023-03-06T09:35:23.202Z,4.47
2023-03-06T09:37:50.228Z,3.90
2023-03-06T09:40:20.091Z,3.95
2023-03-06T09:42:47.134Z,4.03
2023-03-06T09:45:14.456Z,4.32
2023-03-06T09:47:53.153Z,4.40
2023-03-06T09:50:48.281Z,3.55
2023-03-06T09:53:38.298Z,4.30
2023-03-06T09:56:22.588Z,4.03
2023-03-06T09:58:51.632Z,4.60
2023-03-06T10:01:31.929Z,4.72
2023-03-06T10:04:28.459Z,4.68
2023-03-06T10:07:14.794Z,3.78
2023-03-06T10:09:57.335Z,3.97
2023-03-06T10:12:35.404Z,4.60
2023-03-06T10:15:25.985Z,4.65
2023-03-06T10:17:53.228Z,4.20
2023-03-06T10:20:29.144Z,4.80
2023-03-06T10:23:11.132Z,4.40
2023-03-06T10:25:57.244Z,4.13
2023-03-06T10:28:29.828Z,4.53
2023-03-06T10:31:09.078Z,4.63
2023-03-06T10:33:48.526Z,5.80
2023-03-06T10:36:17.081Z,5.30
2023-03-06T10:38:44.643Z,4.50
2023-03-06T10:41:11.683Z,4.30
2023-03-06T10:44:04.734Z,4.50
2023-03-06T10:46:43.086Z,5.05
2023-03-06T10:49:35.810Z,5.15
2023-03-06T10:52:02.704Z,5.22
2023-03-06T10:54:31.704Z,5.40
2023-03-06T10:56:58.712Z,4.90
2023-03-06T10:59:28.416Z,4.43
2023-03-06T11:01:59.243Z,4.47
2023-03-06T11:04:30.185Z,5.05
2023-03-06T11:07:14.736Z,5.05
2023-03-06T11:09:57.296Z,4.07
2023-03-06T11:12:34.692Z,4.63
2023-03-06T11:15:23.347Z,4.75
2023-03-06T11:18:05.009Z,4.60
2023-03-06T11:20:52.385Z,4.20
2023-03-06T11:23:19.607Z,4.38
2023-03-06T11:25:56.750Z,4.90
2023-03-06T11:28:31.878Z,4.22
2023-03-06T11:31:15.451Z,4.10
2023-03-06T11:34:06.815Z,3.80
2023-03-06T11:36:56.541Z,4.45
2023-03-06T11:39:48.004Z,3.38
2023-03-06T11:42:26.275Z,4.00
2023-03-06T11:45:26.825Z,3.55
2023-03-06T11:48:31.852Z,3.65
2023-03-06T11:51:12.441Z,3.42
2023-03-06T11:53:39.808Z,3.45
2023-03-06T11:56:19.062Z,3.53
2023-03-06T11:59:18.812Z,3.58
2023-03-06T12:01:58.218Z,3.83
2023-03-06T12:04:31.304Z,3.85
2023-03-06T12:07:07.214Z,3.15
2023-03-06T12:09:56.422Z,3.40
2023-03-06T12:12:26.269Z,3.60
2023-03-06T12:17:44.388Z,4.68
2023-03-06T12:20:39.755Z,3.53
2023-03-06T12:23:37.265Z,3.20
2023-03-06T12:26:31.569Z,3.55
2023-03-06T12:29:13.434Z,3.35
2023-03-06T12:32:04.888Z,3.10
2023-03-06T12:34:38.346Z,3.28
2023-03-06T12:37:28.440Z,3.00
2023-03-06T12:40:25.621Z,2.75
2023-03-06T12:43:07.588Z,3.08
2023-03-06T12:45:35.256Z,2.60
2023-03-06T12:48:02.604Z,2.63
2023-03-06T12:50:31.175Z,2.35
2023-03-06T12:53:03.323Z,2.13
2023-03-06T12:55:38.061Z,2.83
2023-03-06T12:58:30.111Z,2.90
2023-03-06T13:01:04.714Z,3.33
2023-03-06T13:03:54.796Z,3.10
2023-03-06T13:06:54.242Z,2.60
2023-03-06T13:09:58.910Z,2.78
2023-03-06T13:12:47.611Z,2.83
2023-03-06T13:15:41.938Z,2.65
2023-03-06T13:18:23.952Z,2.83
2023-03-06T13:20:55.123Z,2.55
2023-03-06T13:23:37.345Z,2.60
2023-03-06T13:26:05.433Z,2.92
2023-03-06T13:28:45.026Z,2.70
2023-03-06T13:31:31.706Z,2.50
2023-03-06T13:34:36.820Z,2.88
2023-03-06T13:37:19.599Z,2.33
2023-03-06T13:40:10.165Z,2.40
2023-03-06T13:42:59.746Z,2.50
2023-03-06T13:45:30.850Z,2.17
2023-03-06T13:50:48.699Z,2.47
2023-03-06T13:53:27.843Z,2.85
2023-03-06T13:56:21.579Z,2.40
2023-03-06T13:59:02.101Z,2.92
2023-03-06T14:01:50.869Z,2.97
2023-03-06T14:04:57.556Z,2.92
2023-03-06T14:07:32.361Z,2.75
2023-03-06T14:10:08.437Z,2.95
2023-03-06T14:12:38.163Z,2.53
2023-03-06T14:15:23.428Z,2.83
2023-03-06T14:17:54.898Z,2.53
2023-03-06T14:20:22.057Z,2.80
2023-03-06T14:22:48.902Z,2.65
2023-03-06T14:25:29.170Z,3.35
2023-03-06T14:28:02.908Z,2.33
2023-03-06T14:30:32.696Z,2.88
2023-03-06T14:32:59.560Z,2.80
2023-03-06T14:35:27.853Z,1.73
2023-03-06T14:38:06.195Z,2.08
2023-03-06T14:40:40.950Z,2.20
2023-03-06T14:43:34.345Z,2.30
2023-03-06T14:46:02.675Z,1.83
2023-03-06T14:48:41.942Z,2.05
2023-03-06T14:51:27.396Z,2.05
2023-03-06T14:53:54.386Z,2.40
2023-03-06T14:56:22.631Z,2.03
2023-03-06T14:59:00.014Z,3.33
2023-03-06T15:01:34.192Z,2.65
2023-03-06T15:04:01.689Z,2.42
2023-03-06T15:06:28.648Z,2.25
2023-03-06T15:09:27.842Z,1.92
2023-03-06T15:12:05.321Z,3.10
2023-03-06T15:14:42.505Z,2.65
2023-03-06T15:17:18.599Z,2.47
2023-03-06T15:19:47.089Z,2.35
2023-03-06T15:22:28.351Z,2.88
2023-03-06T15:25:15.195Z,2.22
2023-03-06T15:27:44.349Z,2.55
2023-03-06T15:30:36.230Z,2.83
2023-03-06T15:33:22.984Z,2.90
2023-03-06T15:35:55.105Z,2.75
2023-03-06T15:38:44.328Z,2.80
2023-03-06T15:41:34.119Z,2.93
2023-03-06T15:44:02.336Z,8.32
2023-03-06T15:46:29.575Z,15.23
2023-03-06T15:49:03.240Z,15.48
2023-03-06T15:51:31.030Z,15.80
2023-03-06T15:54:09.949Z,16.05
2023-03-06T15:56:43.306Z,5.78
2023-03-06T15:59:24.461Z,6.00
2023-03-06T16:01:51.764Z,5.53
2023-03-06T16:04:19.839Z,3.67
2023-03-06T16:06:47.035Z,2.55
2023-03-06T16:09:14.625Z,2.40
2023-03-06T16:11:44.905Z,2.40
2023-03-06T16:14:18.835Z,3.78
2023-03-06T16:16:46.038Z,2.13
2023-03-06T16:19:26.094Z,2.00
2023-03-06T16:21:53.778Z,1.77
2023-03-06T16:24:20.672Z,2.45
2023-03-06T16:26:50.138Z,2.03
2023-03-06T16:29:25.113Z,2.10
2023-03-06T16:31:52.359Z,2.10
2023-03-06T16:34:19.913Z,1.80
2023-03-06T16:36:47.547Z,1.73
2023-03-06T16:39:19.110Z,1.80
2023-03-06T16:41:46.253Z,1.70
2023-03-06T16:44:13.483Z,2.08
2023-03-06T16:46:46.007Z,1.80
2023-03-06T16:49:23.793Z,1.88
2023-03-06T16:51:50.911Z,1.75
2023-03-06T16:54:17.797Z,1.48
2023-03-06T16:56:44.771Z,1.65
2023-03-06T16:59:11.984Z,1.52
2023-03-06T17:01:40.156Z,1.85
2023-03-06T17:04:07.096Z,1.50
2023-03-06T17:06:34.063Z,1.35
2023-03-06T17:09:01.023Z,1.40
2023-03-06T17:11:28.160Z,1.60
2023-03-06T17:13:55.474Z,1.67
2023-03-06T17:16:22.467Z,1.75
2023-03-06T17:18:49.847Z,1.60
2023-03-06T17:21:16.745Z,1.80
2023-03-06T17:23:44.543Z,1.80
2023-03-06T17:26:15.755Z,1.83
2023-03-06T17:28:42.896Z,1.92
2023-03-06T17:31:16.654Z,2.03
2023-03-06T17:33:43.817Z,1.95
2023-03-06T17:36:10.704Z,1.95
2023-03-06T17:38:37.814Z,1.77
2023-03-06T17:41:05.796Z,2.00
2023-03-06T17:43:32.951Z,1.50
2023-03-06T17:46:18.560Z,1.83
2023-03-06T17:48:45.537Z,1.52
2023-03-06T17:51:12.432Z,1.80
2023-03-06T17:53:39.506Z,1.92
2023-03-06T17:56:08.104Z,1.90
2023-03-06T17:58:35.095Z,1.80
2023-03-06T18:01:12.929Z,1.83
2023-03-06T18:03:40.062Z,1.73
2023-03-06T18:06:09.510Z,1.75
2023-03-06T18:08:37.324Z,1.60
2023-03-06T18:11:05.447Z,1.90
2023-03-06T18:13:36.381Z,2.00
2023-03-06T18:16:03.909Z,1.63
2023-03-06T18:18:30.842Z,2.03
2023-03-06T18:20:57.863Z,1.80
2023-03-06T18:23:25.161Z,1.90
2023-03-06T18:25:52.771Z,1.65
2023-03-06T18:28:19.709Z,1.90
2023-03-06T18:30:46.623Z,2.00
2023-03-06T18:33:13.507Z,2.03
2023-03-06T18:35:44.087Z,2.10
2023-03-06T18:38:11.050Z,2.00
2023-03-06T18:40:37.971Z,2.30
2023-03-06T18:43:04.960Z,2.00
2023-03-06T18:45:33.549Z,2.45
2023-03-06T18:48:00.514Z,2.63
2023-03-06T18:50:27.480Z,2.78
2023-03-06T18:52:54.374Z,2.67
2023-03-06T18:55:21.610Z,2.60
2023-03-06T18:57:48.478Z,2.35
2023-03-06T19:00:15.835Z,2.20
2023-03-06T19:02:42.740Z,2.22
2023-03-06T19:05:10.365Z,2.45
2023-03-06T19:07:37.383Z,2.70
2023-03-06T19:10:04.638Z,2.30
2023-03-06T19:12:33.013Z,3.03
2023-03-06T19:14:59.926Z,2.35
2023-03-06T19:17:26.805Z,2.22
2023-03-06T19:19:55.147Z,1.90
2023-03-06T19:22:23.147Z,2.42
2023-03-06T19:24:50.263Z,2.33
2023-03-06T19:27:17.260Z,2.17
2023-03-06T19:29:44.205Z,2.05
2023-03-06T19:32:11.162Z,2.30
2023-03-06T19:34:38.175Z,2.33
2023-03-06T19:37:05.035Z,2.28
2023-03-06T19:39:32.035Z,2.40
2023-03-06T19:41:58.973Z,1.75
2023-03-06T19:44:25.933Z,1.25
2023-03-06T19:46:52.837Z,1.10
2023-03-06T19:49:22.246Z,0.98
2023-03-06T19:51:49.118Z,1.20
2023-03-06T19:54:16.205Z,1.20
2023-03-06T19:56:43.211Z,1.20
2023-03-06T19:59:10.280Z,1.00
2023-03-06T20:01:38.743Z,1.25
2023-03-06T20:04:05.938Z,1.25
2023-03-06T20:06:39.128Z,1.30
2023-03-06T20:09:07.867Z,1.40
2023-03-06T20:11:34.855Z,1.00
2023-03-06T20:14:02.736Z,1.48
2023-03-06T20:16:30.067Z,1.65
2023-03-06T20:18:58.975Z,1.55
2023-03-06T20:21:28.490Z,1.40
2023-03-06T20:23:57.043Z,1.38
2023-03-06T20:26:24.894Z,1.45
2023-03-06T20:28:51.768Z,1.60
2023-03-06T20:31:19.992Z,1.50
2023-03-06T20:33:48.126Z,2.00
2023-03-06T20:36:19.929Z,2.00
2023-03-06T20:38:47.282Z,2.40
2023-03-06T20:41:15.716Z,3.03
2023-03-06T20:43:42.636Z,2.65
2023-03-06T20:46:09.481Z,3.13
2023-03-06T20:48:36.361Z,3.00
2023-03-06T20:51:04.178Z,3.20
2023-03-06T20:53:31.133Z,3.60
2023-03-06T20:55:58.026Z,3.30
2023-03-06T20:58:28.629Z,3.17
2023-03-06T21:00:56.142Z,3.10
2023-03-06T21:03:22.978Z,3.38
2023-03-06T21:05:49.947Z,2.95
2023-03-06T21:08:16.897Z,3.05
2023-03-06T21:10:46.871Z,3.13
2023-03-06T21:13:14.256Z,2.38
2023-03-06T21:15:41.905Z,2.65
2023-03-06T21:18:09.115Z,2.08
2023-03-06T21:20:38.479Z,2.40
2023-03-06T21:23:05.812Z,2.00
2023-03-06T21:25:32.844Z,2.53
2023-03-06T21:28:00.316Z,2.40
2023-03-06T21:30:27.983Z,2.33
2023-03-06T21:32:54.848Z,2.10
2023-03-06T21:35:21.841Z,2.80
2023-03-06T21:37:48.760Z,2.90
2023-03-06T21:40:15.736Z,1.98
2023-03-06T21:42:42.625Z,2.30
2023-03-06T21:45:09.930Z,1.98
2023-03-06T21:47:38.877Z,2.15
2023-03-06T21:50:07.450Z,1.90
2023-03-06T21:52:34.444Z,2.03
2023-03-06T21:55:01.343Z,2.22
2023-03-06T21:57:28.207Z,2.17
2023-03-06T21:59:55.063Z,2.30
2023-03-06T22:02:21.960Z,2.30
2023-03-06T22:04:52.673Z,2.30
2023-03-06T22:07:20.289Z,1.73
2023-03-06T22:09:47.371Z,2.78
2023-03-06T22:12:14.542Z,2.47
2023-03-06T22:14:43.637Z,2.30
2023-03-06T22:17:10.556Z,2.30
2023-03-06T22:19:37.384Z,2.00
2023-03-06T22:22:04.491Z,1.95
2023-03-06T22:24:32.231Z,2.00
2023-03-06T22:26:59.069Z,2.10
2023-03-06T22:29:25.993Z,2.08
2023-03-06T22:31:53.102Z,2.30
2023-03-06T22:34:20.087Z,2.05
2023-03-06T22:36:47.001Z,2.20
2023-03-06T22:39:13.906Z,2.90
2023-03-06T22:41:40.925Z,2.55
2023-03-06T22:44:07.760Z,2.47
2023-03-06T22:46:34.681Z,2.67
2023-03-06T22:49:01.876Z,2.10
2023-03-06T22:51:29.475Z,2.25
2023-03-06T22:53:56.511Z,2.30
2023-03-06T22:56:23.338Z,2.40
2023-03-06T22:58:50.209Z,1.98
2023-03-06T23:01:21.556Z,2.50
2023-03-06T23:03:58.852Z,2.72
2023-03-06T23:06:30.928Z,2.22
2023-03-06T23:08:59.990Z,2.58
2023-03-06T23:11:28.045Z,1.90
2023-03-06T23:14:13.283Z,2.20
2023-03-06T23:16:58.630Z,2.42
2023-03-06T23:19:44.465Z,2.03
2023-03-06T23:22:29.687Z,1.90
2023-03-06T23:25:15.212Z,1.90
2023-03-06T23:27:42.272Z,2.08
2023-03-06T23:30:09.651Z,1.85
2023-03-06T23:32:36.492Z,2.05
2023-03-06T23:35:03.408Z,1.92
2023-03-06T23:37:30.290Z,2.10
2023-03-06T23:39:57.316Z,1.77
2023-03-06T23:42:24.266Z,1.85
2023-03-06T23:44:51.108Z,1.70
2023-03-06T23:47:20.086Z,2.17
2023-03-06T23:49:47.042Z,2.05
2023-03-06T23:52:13.914Z,1.83
2023-03-06T23:54:40.828Z,2.05
2023-03-06T23:57:07.811Z,1.95
2023-03-06T23:59:34.724Z,1.70
